sensor_id;sensor_type;location;lat;lon;timestamp;P1;durP1;ratioP1;P2;durP2;ratioP2
7108;SDS011;29079;41.930;25.558;2023-03-01T00:01:04;45.92;;;15.95;;
7108;SDS011;29079;41.930;25.558;2023-03-01T00:03:38;41.80;;;16.00;;
7108;SDS011;29079;41.930;25.558;2023-03-01T00:06:12;41.85;;;16.63;;
7108;SDS011;29079;41.930;25.558;2023-03-01T00:08:46;42.20;;;17.08;;
7108;SDS011;29079;41.930;25.558;2023-03-01T00:11:20;59.55;;;21.35;;
7108;SDS011;29079;41.930;25.558;2023-03-01T00:13:57;68.57;;;23.90;;
7108;SDS011;29079;41.930;25.558;2023-03-01T00:16:34;81.80;;;28.33;;
7108;SDS011;29079;41.930;25.558;2023-03-01T00:19:11;84.22;;;28.85;;
7108;SDS011;29079;41.930;25.558;2023-03-01T00:21:46;75.25;;;29.42;;
7108;SDS011;29079;41.930;25.558;2023-03-01T00:24:20;93.43;;;33.08;;
7108;SDS011;29079;41.930;25.558;2023-03-01T00:26:54;96.85;;;32.10;;
7108;SDS011;29079;41.930;25.558;2023-03-01T00:29:28;88.70;;;29.55;;
7108;SDS011;29079;41.930;25.558;2023-03-01T00:32:03;77.00;;;26.75;;
7108;SDS011;29079;41.930;25.558;2023-03-01T00:34:36;78.25;;;24.85;;
7108;SDS011;29079;41.930;25.558;2023-03-01T00:37:09;84.32;;;25.58;;
7108;SDS011;29079;41.930;25.558;2023-03-01T00:39:43;73.95;;;25.48;;
7108;SDS011;29079;41.930;25.558;2023-03-01T00:42:16;84.07;;;25.25;;
7108;SDS011;29079;41.930;25.558;2023-03-01T00:44:50;83.93;;;26.40;;
7108;SDS011;29079;41.930;25.558;2023-03-01T00:47:24;108.97;;;31.75;;
7108;SDS011;29079;41.930;25.558;2023-03-01T00:49:58;103.88;;;32.92;;
7108;SDS011;29079;41.930;25.558;2023-03-01T00:52:31;128.82;;;35.70;;
7108;SDS011;29079;41.930;25.558;2023-03-01T00:55:05;121.32;;;38.15;;
7108;SDS011;29079;41.930;25.558;2023-03-01T00:57:39;107.90;;;33.08;;
7108;SDS011;29079;41.930;25.558;2023-03-01T01:00:13;118.75;;;37.00;;
7108;SDS011;29079;41.930;25.558;2023-03-01T01:05:21;90.78;;;30.60;;
7108;SDS011;29079;41.930;25.558;2023-03-01T01:07:54;97.40;;;33.80;;
7108;SDS011;29079;41.930;25.558;2023-03-01T01:10:28;106.45;;;32.80;;
7108;SDS011;29079;41.930;25.558;2023-03-01T01:13:03;94.18;;;31.58;;
7108;SDS011;29079;41.930;25.558;2023-03-01T01:15:38;96.05;;;29.92;;
7108;SDS011;29079;41.930;25.558;2023-03-01T01:18:12;95.88;;;29.95;;
7108;SDS011;29079;41.930;25.558;2023-03-01T01:20:46;87.07;;;32.08;;
7108;SDS011;29079;41.930;25.558;2023-03-01T01:23:19;63.40;;;27.63;;
7108;SDS011;29079;41.930;25.558;2023-03-01T01:25:53;64.13;;;24.95;;
7108;SDS011;29079;41.930;25.558;2023-03-01T01:28:27;59.95;;;25.10;;
7108;SDS011;29079;41.930;25.558;2023-03-01T01:31:00;45.63;;;21.75;;
7108;SDS011;29079;41.930;25.558;2023-03-01T01:33:35;41.08;;;20.38;;
7108;SDS011;29079;41.930;25.558;2023-03-01T01:36:09;42.20;;;21.42;;
7108;SDS011;29079;41.930;25.558;2023-03-01T01:38:44;34.72;;;18.65;;
7108;SDS011;29079;41.930;25.558;2023-03-01T01:41:18;39.30;;;20.73;;
7108;SDS011;29079;41.930;25.558;2023-03-01T01:46:44;42.03;;;20.90;;
7108;SDS011;29079;41.930;25.558;2023-03-01T01:49:27;47.65;;;20.48;;
7108;SDS011;29079;41.930;25.558;2023-03-01T01:52:05;40.92;;;20.85;;
7108;SDS011;29079;41.930;25.558;2023-03-01T01:54:43;38.05;;;18.63;;
7108;SDS011;29079;41.930;25.558;2023-03-01T01:57:22;34.80;;;18.35;;
7108;SDS011;29079;41.930;25.558;2023-03-01T02:00:00;30.75;;;15.88;;
7108;SDS011;29079;41.930;25.558;2023-03-01T02:02:38;35.45;;;19.23;;
7108;SDS011;29079;41.930;25.558;2023-03-01T02:05:22;28.25;;;17.50;;
7108;SDS011;29079;41.930;25.558;2023-03-01T02:07:59;26.35;;;13.90;;
7108;SDS011;29079;41.930;25.558;2023-03-01T02:10:33;22.77;;;13.70;;
7108;SDS011;29079;41.930;25.558;2023-03-01T02:13:08;25.65;;;14.23;;
7108;SDS011;29079;41.930;25.558;2023-03-01T02:15:42;23.98;;;13.73;;
7108;SDS011;29079;41.930;25.558;2023-03-01T02:18:16;26.17;;;13.57;;
7108;SDS011;29079;41.930;25.558;2023-03-01T02:20:58;19.77;;;11.75;;
7108;SDS011;29079;41.930;25.558;2023-03-01T02:23:38;24.48;;;14.45;;
7108;SDS011;29079;41.930;25.558;2023-03-01T02:26:15;21.45;;;13.77;;
7108;SDS011;29079;41.930;25.558;2023-03-01T02:28:55;23.52;;;14.60;;
7108;SDS011;29079;41.930;25.558;2023-03-01T02:31:28;24.35;;;15.02;;
7108;SDS011;29079;41.930;25.558;2023-03-01T02:34:17;27.05;;;14.00;;
7108;SDS011;29079;41.930;25.558;2023-03-01T02:36:53;24.60;;;13.85;;
7108;SDS011;29079;41.930;25.558;2023-03-01T02:39:30;29.88;;;15.88;;
7108;SDS011;29079;41.930;25.558;2023-03-01T02:42:07;31.90;;;16.05;;
7108;SDS011;29079;41.930;25.558;2023-03-01T02:44:46;31.80;;;18.10;;
7108;SDS011;29079;41.930;25.558;2023-03-01T02:47:19;34.42;;;17.90;;
7108;SDS011;29079;41.930;25.558;2023-03-01T02:49:53;41.42;;;20.65;;
7108;SDS011;29079;41.930;25.558;2023-03-01T02:52:33;45.42;;;21.77;;
7108;SDS011;29079;41.930;25.558;2023-03-01T02:55:14;50.00;;;24.02;;
7108;SDS011;29079;41.930;25.558;2023-03-01T02:57:49;54.83;;;26.50;;
7108;SDS011;29079;41.930;25.558;2023-03-01T03:03:01;61.50;;;25.90;;
7108;SDS011;29079;41.930;25.558;2023-03-01T03:05:34;67.32;;;29.23;;
7108;SDS011;29079;41.930;25.558;2023-03-01T03:08:07;76.30;;;30.48;;
7108;SDS011;29079;41.930;25.558;2023-03-01T03:10:42;88.20;;;34.25;;
7108;SDS011;29079;41.930;25.558;2023-03-01T03:13:17;87.10;;;32.60;;
7108;SDS011;29079;41.930;25.558;2023-03-01T03:15:53;88.85;;;29.75;;
7108;SDS011;29079;41.930;25.558;2023-03-01T03:18:27;87.15;;;31.52;;
7108;SDS011;29079;41.930;25.558;2023-03-01T03:21:00;92.53;;;32.72;;
7108;SDS011;29079;41.930;25.558;2023-03-01T03:23:33;108.75;;;35.25;;
7108;SDS011;29079;41.930;25.558;2023-03-01T03:28:40;91.97;;;33.08;;
7108;SDS011;29079;41.930;25.558;2023-03-01T03:31:15;66.88;;;27.23;;
7108;SDS011;29079;41.930;25.558;2023-03-01T03:33:49;54.72;;;25.55;;
7108;SDS011;29079;41.930;25.558;2023-03-01T03:36:23;55.03;;;24.90;;
7108;SDS011;29079;41.930;25.558;2023-03-01T03:38:58;49.60;;;22.88;;
7108;SDS011;29079;41.930;25.558;2023-03-01T03:41:31;38.85;;;18.65;;
7108;SDS011;29079;41.930;25.558;2023-03-01T03:44:07;37.05;;;19.33;;
7108;SDS011;29079;41.930;25.558;2023-03-01T03:46:42;38.42;;;20.70;;
7108;SDS011;29079;41.930;25.558;2023-03-01T03:49:16;36.78;;;20.05;;
7108;SDS011;29079;41.930;25.558;2023-03-01T03:51:49;34.72;;;19.02;;
7108;SDS011;29079;41.930;25.558;2023-03-01T03:54:22;31.70;;;16.88;;
7108;SDS011;29079;41.930;25.558;2023-03-01T03:56:56;25.42;;;13.77;;
7108;SDS011;29079;41.930;25.558;2023-03-01T03:59:39;30.92;;;15.57;;
7108;SDS011;29079;41.930;25.558;2023-03-01T04:02:14;34.05;;;17.77;;
7108;SDS011;29079;41.930;25.558;2023-03-01T04:04:54;37.10;;;21.30;;
7108;SDS011;29079;41.930;25.558;2023-03-01T04:07:27;54.08;;;23.80;;
7108;SDS011;29079;41.930;25.558;2023-03-01T04:10:00;61.72;;;24.73;;
7108;SDS011;29079;41.930;25.558;2023-03-01T04:12:37;77.63;;;32.15;;
7108;SDS011;29079;41.930;25.558;2023-03-01T04:15:11;86.75;;;33.92;;
7108;SDS011;29079;41.930;25.558;2023-03-01T04:17:49;93.38;;;37.15;;
7108;SDS011;29079;41.930;25.558;2023-03-01T04:20:25;96.28;;;36.15;;
7108;SDS011;29079;41.930;25.558;2023-03-01T04:23:01;79.72;;;35.65;;
7108;SDS011;29079;41.930;25.558;2023-03-01T04:25:44;80.72;;;34.90;;
7108;SDS011;29079;41.930;25.558;2023-03-01T04:28:21;83.05;;;36.13;;
7108;SDS011;29079;41.930;25.558;2023-03-01T04:30:57;105.32;;;39.92;;
7108;SDS011;29079;41.930;25.558;2023-03-01T04:33:33;107.90;;;40.90;;
7108;SDS011;29079;41.930;25.558;2023-03-01T04:36:07;98.10;;;38.28;;
7108;SDS011;29079;41.930;25.558;2023-03-01T04:38:42;102.80;;;38.75;;
7108;SDS011;29079;41.930;25.558;2023-03-01T04:41:19;92.25;;;38.92;;
7108;SDS011;29079;41.930;25.558;2023-03-01T04:43:54;102.78;;;40.25;;
7108;SDS011;29079;41.930;25.558;2023-03-01T04:46:28;103.10;;;42.35;;
7108;SDS011;29079;41.930;25.558;2023-03-01T04:49:03;113.30;;;42.90;;
7108;SDS011;29079;41.930;25.558;2023-03-01T04:51:36;111.47;;;40.83;;
7108;SDS011;29079;41.930;25.558;2023-03-01T04:54:10;106.70;;;40.38;;
7108;SDS011;29079;41.930;25.558;2023-03-01T04:56:43;100.05;;;39.13;;
7108;SDS011;29079;41.930;25.558;2023-03-01T04:59:16;89.82;;;34.22;;
7108;SDS011;29079;41.930;25.558;2023-03-01T05:01:55;95.03;;;39.42;;
7108;SDS011;29079;41.930;25.558;2023-03-01T05:04:30;110.75;;;42.53;;
7108;SDS011;29079;41.930;25.558;2023-03-01T05:07:04;109.93;;;39.28;;
7108;SDS011;29079;41.930;25.558;2023-03-01T05:09:37;119.05;;;41.45;;
7108;SDS011;29079;41.930;25.558;2023-03-01T05:12:11;103.30;;;37.08;;
7108;SDS011;29079;41.930;25.558;2023-03-01T05:14:45;144.52;;;46.05;;
7108;SDS011;29079;41.930;25.558;2023-03-01T05:19:54;148.33;;;43.20;;
7108;SDS011;29079;41.930;25.558;2023-03-01T05:22:27;126.43;;;37.47;;
7108;SDS011;29079;41.930;25.558;2023-03-01T05:25:01;97.47;;;36.13;;
7108;SDS011;29079;41.930;25.558;2023-03-01T05:27:34;89.20;;;33.30;;
7108;SDS011;29079;41.930;25.558;2023-03-01T05:30:09;79.43;;;30.35;;
7108;SDS011;29079;41.930;25.558;2023-03-01T05:32:46;80.10;;;30.95;;
7108;SDS011;29079;41.930;25.558;2023-03-01T05:35:23;72.88;;;30.73;;
7108;SDS011;29079;41.930;25.558;2023-03-01T05:37:57;82.03;;;33.28;;
7108;SDS011;29079;41.930;25.558;2023-03-01T05:40:32;87.03;;;33.47;;
7108;SDS011;29079;41.930;25.558;2023-03-01T05:43:06;84.57;;;32.22;;
7108;SDS011;29079;41.930;25.558;2023-03-01T05:45:41;75.70;;;32.72;;
7108;SDS011;29079;41.930;25.558;2023-03-01T05:48:14;81.85;;;30.63;;
7108;SDS011;29079;41.930;25.558;2023-03-01T05:50:49;84.50;;;35.15;;
7108;SDS011;29079;41.930;25.558;2023-03-01T05:53:22;80.50;;;32.33;;
7108;SDS011;29079;41.930;25.558;2023-03-01T05:55:56;74.80;;;32.83;;
7108;SDS011;29079;41.930;25.558;2023-03-01T05:58:29;77.75;;;32.60;;
7108;SDS011;29079;41.930;25.558;2023-03-01T06:01:03;73.10;;;32.10;;
7108;SDS011;29079;41.930;25.558;2023-03-01T06:03:37;73.88;;;31.88;;
7108;SDS011;29079;41.930;25.558;2023-03-01T06:06:12;52.28;;;24.88;;
7108;SDS011;29079;41.930;25.558;2023-03-01T06:08:45;55.00;;;26.58;;
7108;SDS011;29079;41.930;25.558;2023-03-01T06:11:18;48.60;;;24.63;;
7108;SDS011;29079;41.930;25.558;2023-03-01T06:13:53;48.10;;;23.40;;
7108;SDS011;29079;41.930;25.558;2023-03-01T06:19:00;28.58;;;16.08;;
7108;SDS011;29079;41.930;25.558;2023-03-01T06:21:35;30.00;;;18.00;;
7108;SDS011;29079;41.930;25.558;2023-03-01T06:24:09;32.08;;;18.33;;
7108;SDS011;29079;41.930;25.558;2023-03-01T06:26:42;37.15;;;21.20;;
7108;SDS011;29079;41.930;25.558;2023-03-01T06:29:16;40.45;;;21.00;;
7108;SDS011;29079;41.930;25.558;2023-03-01T06:34:23;42.08;;;21.48;;
7108;SDS011;29079;41.930;25.558;2023-03-01T06:36:58;48.60;;;24.73;;
7108;SDS011;29079;41.930;25.558;2023-03-01T06:39:31;54.83;;;26.88;;
7108;SDS011;29079;41.930;25.558;2023-03-01T06:42:04;51.95;;;28.83;;
7108;SDS011;29079;41.930;25.558;2023-03-01T06:44:38;64.50;;;26.98;;
7108;SDS011;29079;41.930;25.558;2023-03-01T06:47:12;66.20;;;30.48;;
7108;SDS011;29079;41.930;25.558;2023-03-01T06:49:45;61.72;;;27.27;;
7108;SDS011;29079;41.930;25.558;2023-03-01T06:52:20;63.35;;;28.92;;
7108;SDS011;29079;41.930;25.558;2023-03-01T06:54:53;66.72;;;29.23;;
7108;SDS011;29079;41.930;25.558;2023-03-01T06:57:27;55.15;;;24.67;;
7108;SDS011;29079;41.930;25.558;2023-03-01T07:00:00;59.83;;;26.90;;
7108;SDS011;29079;41.930;25.558;2023-03-01T07:02:34;52.25;;;25.45;;
7108;SDS011;29079;41.930;25.558;2023-03-01T07:05:08;55.75;;;28.30;;
7108;SDS011;29079;41.930;25.558;2023-03-01T07:07:42;62.58;;;28.35;;
7108;SDS011;29079;41.930;25.558;2023-03-01T07:10:16;68.47;;;32.03;;
7108;SDS011;29079;41.930;25.558;2023-03-01T07:12:52;79.28;;;33.60;;
7108;SDS011;29079;41.930;25.558;2023-03-01T07:15:28;89.50;;;33.08;;
7108;SDS011;29079;41.930;25.558;2023-03-01T07:18:02;79.22;;;32.78;;
7108;SDS011;29079;41.930;25.558;2023-03-01T07:23:10;71.47;;;30.83;;
7108;SDS011;29079;41.930;25.558;2023-03-01T07:25:43;82.40;;;32.60;;
7108;SDS011;29079;41.930;25.558;2023-03-01T07:28:17;80.00;;;32.85;;
7108;SDS011;29079;41.930;25.558;2023-03-01T07:30:50;83.00;;;32.70;;
7108;SDS011;29079;41.930;25.558;2023-03-01T07:33:24;84.85;;;35.33;;
7108;SDS011;29079;41.930;25.558;2023-03-01T07:38:34;77.30;;;29.42;;
7108;SDS011;29079;41.930;25.558;2023-03-01T07:41:07;73.05;;;33.53;;
7108;SDS011;29079;41.930;25.558;2023-03-01T07:43:41;86.97;;;35.60;;
7108;SDS011;29079;41.930;25.558;2023-03-01T07:46:14;78.57;;;30.83;;
7108;SDS011;29079;41.930;25.558;2023-03-01T07:48:49;80.90;;;33.70;;
7108;SDS011;29079;41.930;25.558;2023-03-01T07:51:23;95.00;;;38.10;;
7108;SDS011;29079;41.930;25.558;2023-03-01T07:53:58;91.15;;;38.90;;
7108;SDS011;29079;41.930;25.558;2023-03-01T07:56:31;81.18;;;34.42;;
7108;SDS011;29079;41.930;25.558;2023-03-01T07:59:05;86.95;;;32.83;;
7108;SDS011;29079;41.930;25.558;2023-03-01T08:01:38;84.97;;;33.63;;
7108;SDS011;29079;41.930;25.558;2023-03-01T08:04:11;80.68;;;33.17;;
7108;SDS011;29079;41.930;25.558;2023-03-01T08:06:45;79.57;;;32.95;;
7108;SDS011;29079;41.930;25.558;2023-03-01T08:09:20;86.55;;;33.78;;
7108;SDS011;29079;41.930;25.558;2023-03-01T08:11:56;85.22;;;34.15;;
7108;SDS011;29079;41.930;25.558;2023-03-01T08:14:32;84.53;;;32.92;;
7108;SDS011;29079;41.930;25.558;2023-03-01T08:17:06;83.20;;;34.22;;
7108;SDS011;29079;41.930;25.558;2023-03-01T08:19:40;82.97;;;33.80;;
7108;SDS011;29079;41.930;25.558;2023-03-01T08:22:14;110.82;;;36.22;;
7108;SDS011;29079;41.930;25.558;2023-03-01T08:24:49;136.55;;;41.35;;
7108;SDS011;29079;41.930;25.558;2023-03-01T08:27:22;147.30;;;47.35;;
7108;SDS011;29079;41.930;25.558;2023-03-01T08:32:29;153.38;;;46.10;;
7108;SDS011;29079;41.930;25.558;2023-03-01T08:37:37;107.72;;;35.13;;
7108;SDS011;29079;41.930;25.558;2023-03-01T08:40:12;96.45;;;35.05;;
7108;SDS011;29079;41.930;25.558;2023-03-01T08:42:46;95.43;;;38.15;;
7108;SDS011;29079;41.930;25.558;2023-03-01T08:45:19;90.93;;;36.50;;
7108;SDS011;29079;41.930;25.558;2023-03-01T08:47:53;120.35;;;41.50;;
7108;SDS011;29079;41.930;25.558;2023-03-01T08:50:26;113.93;;;40.70;;
7108;SDS011;29079;41.930;25.558;2023-03-01T08:55:35;84.32;;;32.10;;
7108;SDS011;29079;41.930;25.558;2023-03-01T08:58:08;72.68;;;30.30;;
7108;SDS011;29079;41.930;25.558;2023-03-01T09:00:42;63.63;;;28.42;;
7108;SDS011;29079;41.930;25.558;2023-03-01T09:03:16;59.88;;;29.35;;
7108;SDS011;29079;41.930;25.558;2023-03-01T09:05:49;66.70;;;32.42;;
7108;SDS011;29079;41.930;25.558;2023-03-01T09:08:23;107.97;;;37.88;;
7108;SDS011;29079;41.930;25.558;2023-03-01T09:10:58;117.65;;;45.92;;
7108;SDS011;29079;41.930;25.558;2023-03-01T09:13:35;140.63;;;48.63;;
7108;SDS011;29079;41.930;25.558;2023-03-01T09:21:17;90.88;;;35.72;;
7108;SDS011;29079;41.930;25.558;2023-03-01T09:24:11;80.80;;;36.28;;
7108;SDS011;29079;41.930;25.558;2023-03-01T09:26:48;66.22;;;29.52;;
7108;SDS011;29079;41.930;25.558;2023-03-01T09:29:22;52.45;;;27.27;;
7108;SDS011;29079;41.930;25.558;2023-03-01T09:31:57;53.78;;;27.10;;
7108;SDS011;29079;41.930;25.558;2023-03-01T09:34:31;64.65;;;33.17;;
7108;SDS011;29079;41.930;25.558;2023-03-01T09:37:25;53.33;;;32.75;;
7108;SDS011;29079;41.930;25.558;2023-03-01T09:40:00;32.90;;;21.33;;
7108;SDS011;29079;41.930;25.558;2023-03-01T09:42:36;33.20;;;19.10;;
7108;SDS011;29079;41.930;25.558;2023-03-01T09:45:23;25.23;;;16.45;;
7108;SDS011;29079;41.930;25.558;2023-03-01T09:48:01;38.03;;;20.48;;
7108;SDS011;29079;41.930;25.558;2023-03-01T09:50:38;35.88;;;22.15;;
7108;SDS011;29079;41.930;25.558;2023-03-01T09:53:15;43.42;;;25.20;;
7108;SDS011;29079;41.930;25.558;2023-03-01T09:55:50;35.78;;;20.65;;
7108;SDS011;29079;41.930;25.558;2023-03-01T09:58:31;33.58;;;20.70;;
7108;SDS011;29079;41.930;25.558;2023-03-01T10:01:25;42.45;;;22.85;;
7108;SDS011;29079;41.930;25.558;2023-03-01T10:07:17;37.90;;;23.87;;
7108;SDS011;29079;41.930;25.558;2023-03-01T10:10:00;44.05;;;24.17;;
7108;SDS011;29079;41.930;25.558;2023-03-01T10:12:39;37.60;;;21.35;;
7108;SDS011;29079;41.930;25.558;2023-03-01T10:15:18;38.95;;;22.15;;
7108;SDS011;29079;41.930;25.558;2023-03-01T10:18:00;36.80;;;21.10;;
7108;SDS011;29079;41.930;25.558;2023-03-01T10:20:42;36.33;;;19.77;;
7108;SDS011;29079;41.930;25.558;2023-03-01T10:23:19;38.33;;;22.02;;
7108;SDS011;29079;41.930;25.558;2023-03-01T10:25:59;33.47;;;19.40;;
7108;SDS011;29079;41.930;25.558;2023-03-01T10:28:48;42.78;;;22.83;;
7108;SDS011;29079;41.930;25.558;2023-03-01T10:31:31;41.55;;;22.38;;
7108;SDS011;29079;41.930;25.558;2023-03-01T10:34:15;38.10;;;21.75;;
7108;SDS011;29079;41.930;25.558;2023-03-01T10:36:51;35.22;;;20.83;;
7108;SDS011;29079;41.930;25.558;2023-03-01T10:39:28;36.70;;;19.25;;
7108;SDS011;29079;41.930;25.558;2023-03-01T10:42:02;35.20;;;19.60;;
7108;SDS011;29079;41.930;25.558;2023-03-01T10:44:39;40.17;;;20.92;;
7108;SDS011;29079;41.930;25.558;2023-03-01T10:47:18;32.33;;;18.70;;
7108;SDS011;29079;41.930;25.558;2023-03-01T10:49:54;25.48;;;15.27;;
7108;SDS011;29079;41.930;25.558;2023-03-01T10:52:30;25.90;;;14.77;;
7108;SDS011;29079;41.930;25.558;2023-03-01T10:55:19;31.38;;;20.20;;
7108;SDS011;29079;41.930;25.558;2023-03-01T10:58:06;34.83;;;19.50;;
7108;SDS011;29079;41.930;25.558;2023-03-01T11:00:46;30.48;;;17.42;;
7108;SDS011;29079;41.930;25.558;2023-03-01T11:03:23;26.25;;;16.00;;
7108;SDS011;29079;41.930;25.558;2023-03-01T11:06:01;36.15;;;19.67;;
7108;SDS011;29079;41.930;25.558;2023-03-01T11:08:38;36.70;;;20.13;;
7108;SDS011;29079;41.930;25.558;2023-03-01T11:11:18;48.13;;;26.60;;
7108;SDS011;29079;41.930;25.558;2023-03-01T11:13:58;61.00;;;30.38;;
7108;SDS011;29079;41.930;25.558;2023-03-01T11:19:19;63.33;;;29.67;;
7108;SDS011;29079;41.930;25.558;2023-03-01T11:21:55;52.17;;;28.48;;
7108;SDS011;29079;41.930;25.558;2023-03-01T11:24:40;56.55;;;29.33;;
7108;SDS011;29079;41.930;25.558;2023-03-01T11:27:17;56.00;;;28.63;;
7108;SDS011;29079;41.930;25.558;2023-03-01T11:29:52;51.38;;;28.17;;
7108;SDS011;29079;41.930;25.558;2023-03-01T11:32:31;48.33;;;26.92;;
7108;SDS011;29079;41.930;25.558;2023-03-01T11:35:15;47.40;;;24.17;;
7108;SDS011;29079;41.930;25.558;2023-03-01T11:37:56;41.08;;;21.50;;
7108;SDS011;29079;41.930;25.558;2023-03-01T11:40:44;39.42;;;23.13;;
7108;SDS011;29079;41.930;25.558;2023-03-01T11:43:31;40.00;;;24.02;;
7108;SDS011;29079;41.930;25.558;2023-03-01T11:49:38;37.15;;;20.95;;
7108;SDS011;29079;41.930;25.558;2023-03-01T11:52:25;37.67;;;22.75;;
7108;SDS011;29079;41.930;25.558;2023-03-01T11:55:14;33.92;;;20.63;;
7108;SDS011;29079;41.930;25.558;2023-03-01T11:58:01;40.70;;;22.58;;
7108;SDS011;29079;41.930;25.558;2023-03-01T12:00:52;38.47;;;22.35;;
7108;SDS011;29079;41.930;25.558;2023-03-01T12:06:50;36.63;;;23.40;;
7108;SDS011;29079;41.930;25.558;2023-03-01T12:09:38;45.28;;;25.33;;
7108;SDS011;29079;41.930;25.558;2023-03-01T12:12:26;43.17;;;26.48;;
7108;SDS011;29079;41.930;25.558;2023-03-01T12:18:30;40.13;;;23.10;;
7108;SDS011;29079;41.930;25.558;2023-03-01T12:21:23;40.33;;;22.40;;
7108;SDS011;29079;41.930;25.558;2023-03-01T12:24:23;36.72;;;21.60;;
7108;SDS011;29079;41.930;25.558;2023-03-01T12:27:25;32.13;;;18.75;;
7108;SDS011;29079;41.930;25.558;2023-03-01T12:30:13;39.75;;;21.50;;
7108;SDS011;29079;41.930;25.558;2023-03-01T12:33:01;37.47;;;22.13;;
7108;SDS011;29079;41.930;25.558;2023-03-01T12:35:52;43.22;;;25.08;;
7108;SDS011;29079;41.930;25.558;2023-03-01T12:38:40;48.10;;;25.35;;
7108;SDS011;29079;41.930;25.558;2023-03-01T12:41:31;45.38;;;24.35;;
7108;SDS011;29079;41.930;25.558;2023-03-01T12:44:27;37.67;;;21.98;;
7108;SDS011;29079;41.930;25.558;2023-03-01T12:47:18;41.58;;;24.10;;
7108;SDS011;29079;41.930;25.558;2023-03-01T12:49:59;49.90;;;27.63;;
7108;SDS011;29079;41.930;25.558;2023-03-01T12:52:38;49.92;;;28.60;;
7108;SDS011;29079;41.930;25.558;2023-03-01T12:55:21;49.28;;;27.42;;
7108;SDS011;29079;41.930;25.558;2023-03-01T12:58:02;55.90;;;28.10;;
7108;SDS011;29079;41.930;25.558;2023-03-01T13:03:25;45.15;;;27.80;;
7108;SDS011;29079;41.930;25.558;2023-03-01T13:06:08;47.00;;;24.58;;
7108;SDS011;29079;41.930;25.558;2023-03-01T13:08:48;46.63;;;25.95;;
7108;SDS011;29079;41.930;25.558;2023-03-01T13:11:28;57.72;;;27.45;;
7108;SDS011;29079;41.930;25.558;2023-03-01T13:16:52;46.58;;;27.65;;
7108;SDS011;29079;41.930;25.558;2023-03-01T13:19:26;52.42;;;28.65;;
7108;SDS011;29079;41.930;25.558;2023-03-01T13:22:24;57.58;;;31.55;;
7108;SDS011;29079;41.930;25.558;2023-03-01T13:25:02;52.45;;;27.15;;
7108;SDS011;29079;41.930;25.558;2023-03-01T13:27:46;54.13;;;27.50;;
7108;SDS011;29079;41.930;25.558;2023-03-01T13:39:28;46.63;;;24.85;;
7108;SDS011;29079;41.930;25.558;2023-03-01T13:42:25;47.42;;;23.77;;
7108;SDS011;29079;41.930;25.558;2023-03-01T13:45:16;45.33;;;25.38;;
7108;SDS011;29079;41.930;25.558;2023-03-01T13:47:54;45.20;;;23.77;;
7108;SDS011;29079;41.930;25.558;2023-03-01T13:50:36;37.72;;;23.35;;
7108;SDS011;29079;41.930;25.558;2023-03-01T13:53:16;42.38;;;23.60;;
7108;SDS011;29079;41.930;25.558;2023-03-01T13:55:52;45.47;;;26.13;;
7108;SDS011;29079;41.930;25.558;2023-03-01T13:58:31;42.30;;;22.40;;
7108;SDS011;29079;41.930;25.558;2023-03-01T14:01:24;47.78;;;23.98;;
7108;SDS011;29079;41.930;25.558;2023-03-01T14:03:59;53.67;;;27.70;;
7108;SDS011;29079;41.930;25.558;2023-03-01T14:06:35;49.15;;;26.55;;
7108;SDS011;29079;41.930;25.558;2023-03-01T14:09:10;44.50;;;24.65;;
7108;SDS011;29079;41.930;25.558;2023-03-01T14:12:03;38.83;;;22.63;;
7108;SDS011;29079;41.930;25.558;2023-03-01T14:14:52;43.95;;;23.92;;
7108;SDS011;29079;41.930;25.558;2023-03-01T14:17:37;44.63;;;25.40;;
7108;SDS011;29079;41.930;25.558;2023-03-01T14:20:18;51.63;;;27.25;;
7108;SDS011;29079;41.930;25.558;2023-03-01T14:22:55;46.50;;;25.00;;
7108;SDS011;29079;41.930;25.558;2023-03-01T14:25:32;49.30;;;26.52;;
7108;SDS011;29079;41.930;25.558;2023-03-01T14:28:13;42.78;;;23.08;;
7108;SDS011;29079;41.930;25.558;2023-03-01T14:30:50;52.55;;;25.88;;
7108;SDS011;29079;41.930;25.558;2023-03-01T14:33:26;49.72;;;26.92;;
7108;SDS011;29079;41.930;25.558;2023-03-01T14:36:02;62.78;;;29.65;;
7108;SDS011;29079;41.930;25.558;2023-03-01T14:38:39;51.35;;;29.30;;
7108;SDS011;29079;41.930;25.558;2023-03-01T14:41:16;42.60;;;24.60;;
7108;SDS011;29079;41.930;25.558;2023-03-01T14:43:53;42.45;;;24.48;;
7108;SDS011;29079;41.930;25.558;2023-03-01T14:46:31;45.30;;;24.60;;
7108;SDS011;29079;41.930;25.558;2023-03-01T14:49:09;48.63;;;26.05;;
7108;SDS011;29079;41.930;25.558;2023-03-01T14:51:49;47.80;;;26.20;;
7108;SDS011;29079;41.930;25.558;2023-03-01T14:54:29;44.85;;;22.45;;
7108;SDS011;29079;41.930;25.558;2023-03-01T14:59:47;40.63;;;22.23;;
7108;SDS011;29079;41.930;25.558;2023-03-01T15:02:24;48.22;;;25.63;;
7108;SDS011;29079;41.930;25.558;2023-03-01T15:05:01;55.03;;;32.05;;
7108;SDS011;29079;41.930;25.558;2023-03-01T15:07:40;46.03;;;28.20;;
7108;SDS011;29079;41.930;25.558;2023-03-01T15:10:24;49.38;;;27.08;;
7108;SDS011;29079;41.930;25.558;2023-03-01T15:13:09;46.65;;;28.05;;
7108;SDS011;29079;41.930;25.558;2023-03-01T15:15:44;52.00;;;29.23;;
7108;SDS011;29079;41.930;25.558;2023-03-01T15:18:21;55.97;;;30.30;;
7108;SDS011;29079;41.930;25.558;2023-03-01T15:21:05;47.17;;;28.63;;
7108;SDS011;29079;41.930;25.558;2023-03-01T15:23:40;60.10;;;32.85;;
7108;SDS011;29079;41.930;25.558;2023-03-01T15:26:21;55.38;;;28.42;;
7108;SDS011;29079;41.930;25.558;2023-03-01T15:28:58;51.43;;;29.93;;
7108;SDS011;29079;41.930;25.558;2023-03-01T15:31:33;56.55;;;31.33;;
7108;SDS011;29079;41.930;25.558;2023-03-01T15:34:11;58.63;;;30.95;;
7108;SDS011;29079;41.930;25.558;2023-03-01T15:36:56;57.42;;;30.45;;
7108;SDS011;29079;41.930;25.558;2023-03-01T15:39:33;57.47;;;31.33;;
7108;SDS011;29079;41.930;25.558;2023-03-01T15:42:12;66.88;;;35.20;;
7108;SDS011;29079;41.930;25.558;2023-03-01T15:44:49;50.40;;;29.92;;
7108;SDS011;29079;41.930;25.558;2023-03-01T15:47:23;64.80;;;36.20;;
7108;SDS011;29079;41.930;25.558;2023-03-01T15:49:59;72.60;;;39.42;;
7108;SDS011;29079;41.930;25.558;2023-03-01T15:52:35;65.40;;;36.30;;
7108;SDS011;29079;41.930;25.558;2023-03-01T15:55:16;63.83;;;33.58;;
7108;SDS011;29079;41.930;25.558;2023-03-01T15:57:58;67.10;;;33.45;;
7108;SDS011;29079;41.930;25.558;2023-03-01T16:00:33;69.28;;;35.78;;
7108;SDS011;29079;41.930;25.558;2023-03-01T16:03:06;60.95;;;34.05;;
7108;SDS011;29079;41.930;25.558;2023-03-01T16:05:43;69.25;;;33.92;;
7108;SDS011;29079;41.930;25.558;2023-03-01T16:08:17;69.85;;;36.05;;
7108;SDS011;29079;41.930;25.558;2023-03-01T16:10:51;51.95;;;29.58;;
7108;SDS011;29079;41.930;25.558;2023-03-01T16:13:28;64.07;;;31.60;;
7108;SDS011;29079;41.930;25.558;2023-03-01T16:16:03;69.07;;;35.92;;
7108;SDS011;29079;41.930;25.558;2023-03-01T16:18:37;72.22;;;36.38;;
7108;SDS011;29079;41.930;25.558;2023-03-01T16:21:12;54.47;;;30.55;;
7108;SDS011;29079;41.930;25.558;2023-03-01T16:23:48;65.60;;;34.33;;
7108;SDS011;29079;41.930;25.558;2023-03-01T16:26:22;64.47;;;35.40;;
7108;SDS011;29079;41.930;25.558;2023-03-01T16:28:57;52.53;;;27.58;;